createdAt,value
2023-07-24T00:00:53.167Z,101014.66
2023-07-24T00:03:21.073Z,101023.22
2023-07-24T00:05:49.320Z,101022.97
2023-07-24T00:08:18.032Z,101018.19
2023-07-24T00:10:46.214Z,101010.34
2023-07-24T00:13:14.008Z,101019.91
2023-07-24T00:15:41.841Z,101035.44
2023-07-24T00:18:09.942Z,101044.38
2023-07-24T00:20:37.943Z,101040.03
2023-07-24T00:23:05.727Z,101048.38
2023-07-24T00:25:33.640Z,101047.13
2023-07-24T00:28:01.820Z,101048.72
2023-07-24T00:30:29.666Z,101052.72
2023-07-24T00:32:57.581Z,101058.78
2023-07-24T00:35:26.647Z,101067.41
2023-07-24T00:37:54.602Z,101074.16
2023-07-24T00:40:22.510Z,101078.88
2023-07-24T00:42:50.597Z,101092.31
2023-07-24T00:45:18.953Z,101105.16
2023-07-24T00:47:47.675Z,101111.69
2023-07-24T00:50:16.437Z,101130.44
2023-07-24T00:52:44.972Z,101152.38
2023-07-24T00:55:17.609Z,101158.59
2023-07-24T00:57:46.326Z,101167.00
2023-07-24T01:00:15.183Z,101175.50
2023-07-24T01:02:44.815Z,101167.44
2023-07-24T01:05:16.453Z,101170.25
2023-07-24T01:07:44.715Z,101163.69
2023-07-24T01:10:13.560Z,101150.63
2023-07-24T01:13:02.887Z,101150.22
2023-07-24T01:15:49.982Z,101147.06
2023-07-24T01:18:23.080Z,101140.69
2023-07-24T01:21:01.660Z,101131.66
2023-07-24T01:24:03.923Z,101128.66
2023-07-24T01:26:33.775Z,101137.91
2023-07-24T01:29:01.774Z,101161.63
2023-07-24T01:31:29.555Z,101168.84
2023-07-24T01:33:57.531Z,101155.69
2023-07-24T01:36:26.099Z,101143.31
2023-07-24T01:38:55.429Z,101123.44
2023-07-24T01:41:24.618Z,101079.50
2023-07-24T01:43:52.551Z,101072.94
2023-07-24T01:46:20.425Z,101039.34
2023-07-24T01:48:48.553Z,101028.72
2023-07-24T01:51:16.905Z,101021.31
2023-07-24T01:53:44.842Z,101017.19
2023-07-24T01:56:12.683Z,101012.19
2023-07-24T01:58:40.639Z,101003.63
2023-07-24T02:01:08.392Z,100999.22
2023-07-24T02:03:36.668Z,100999.69
2023-07-24T02:06:04.727Z,100985.34
2023-07-24T02:08:33.151Z,100983.53
2023-07-24T02:11:01.086Z,100975.50
2023-07-24T02:13:29.010Z,100972.75
2023-07-24T02:16:00.228Z,100961.09
2023-07-24T02:18:30.766Z,100968.53
2023-07-24T02:21:02.094Z,100969.34
2023-07-24T02:23:32.560Z,100965.28
2023-07-24T02:26:00.958Z,100972.06
2023-07-24T02:28:28.885Z,100968.00
2023-07-24T02:30:57.890Z,100960.03
2023-07-24T02:33:27.889Z,100953.59
2023-07-24T02:35:55.866Z,100940.50
2023-07-24T02:38:23.646Z,100937.44
2023-07-24T02:40:51.612Z,100940.72
2023-07-24T02:43:19.390Z,100943.22
2023-07-24T02:45:47.377Z,100949.94
2023-07-24T02:48:15.507Z,101004.38
2023-07-24T02:50:43.489Z,101006.00
2023-07-24T02:53:11.977Z,101008.66
2023-07-24T02:55:44.904Z,101003.13
2023-07-24T02:58:16.405Z,100996.81
2023-07-24T03:00:45.416Z,101002.41
2023-07-24T03:03:13.152Z,100999.78
2023-07-24T03:05:41.168Z,100988.97
2023-07-24T03:08:08.893Z,100988.97
2023-07-24T03:10:36.827Z,100975.06
2023-07-24T03:13:04.597Z,100977.78
2023-07-24T03:15:32.587Z,100979.41
2023-07-24T03:18:00.414Z,100984.31
2023-07-24T03:20:28.334Z,100978.38
2023-07-24T03:22:56.340Z,100977.34
2023-07-24T03:25:24.638Z,100985.53
2023-07-24T03:27:52.377Z,100989.63
2023-07-24T03:30:21.720Z,100978.16
2023-07-24T03:32:49.716Z,100981.47
2023-07-24T03:35:18.238Z,100984.53
2023-07-24T03:37:46.099Z,100979.44
2023-07-24T03:40:15.168Z,100988.25
2023-07-24T03:42:43.716Z,101002.59
2023-07-24T03:45:12.142Z,100986.78
2023-07-24T03:47:42.178Z,100980.06
2023-07-24T03:50:11.429Z,100971.41
2023-07-24T03:52:39.454Z,100969.97
2023-07-24T03:55:09.330Z,100975.44
2023-07-24T03:57:38.002Z,100964.38
2023-07-24T04:00:08.525Z,100965.84
2023-07-24T04:02:42.795Z,100959.91
2023-07-24T04:05:10.668Z,100972.41
2023-07-24T04:07:38.695Z,100963.34
2023-07-24T04:10:08.505Z,100963.38
2023-07-24T04:12:36.343Z,100954.78
2023-07-24T04:15:04.748Z,100958.03
2023-07-24T04:17:33.740Z,100938.41
2023-07-24T04:20:01.615Z,100945.94
2023-07-24T04:22:29.608Z,100934.91
2023-07-24T04:24:57.423Z,100922.59
2023-07-24T04:27:25.344Z,100914.44
2023-07-24T04:29:53.125Z,100905.66
2023-07-24T04:32:21.372Z,100903.81
2023-07-24T04:34:49.152Z,100897.03
2023-07-24T04:37:16.962Z,100902.16
2023-07-24T04:39:44.853Z,100904.63
2023-07-24T04:42:13.835Z,100898.28
2023-07-24T04:44:41.650Z,100888.47
2023-07-24T04:47:09.761Z,100889.88
2023-07-24T04:49:38.001Z,100885.19
2023-07-24T04:52:06.898Z,100876.41
2023-07-24T04:54:35.132Z,100882.94
2023-07-24T04:57:02.815Z,100878.03
2023-07-24T04:59:30.654Z,100868.19
2023-07-24T05:01:58.524Z,100861.44
2023-07-24T05:04:26.575Z,100868.22
2023-07-24T05:06:54.530Z,100861.06
2023-07-24T05:09:22.715Z,100859.44
2023-07-24T05:11:50.942Z,100858.84
2023-07-24T05:14:18.743Z,100860.66
2023-07-24T05:16:46.784Z,100862.31
2023-07-24T05:19:14.586Z,100868.47
2023-07-24T05:21:42.552Z,100861.53
2023-07-24T05:24:10.194Z,100871.75
2023-07-24T05:26:38.188Z,100879.94
2023-07-24T05:29:06.169Z,100884.03
2023-07-24T05:31:37.485Z,100878.47
2023-07-24T05:34:06.394Z,100884.03
2023-07-24T05:36:34.331Z,100881.97
2023-07-24T05:39:02.393Z,100886.88
2023-07-24T05:41:30.297Z,100887.53
2023-07-24T05:43:58.043Z,100877.53
2023-07-24T05:46:26.107Z,100880.16
2023-07-24T05:48:54.175Z,100883.88
2023-07-24T05:51:21.880Z,100880.00
2023-07-24T05:53:49.707Z,100875.72
2023-07-24T05:56:17.581Z,100881.44
2023-07-24T05:58:45.325Z,100877.56
2023-07-24T06:01:13.436Z,100885.38
2023-07-24T06:03:41.297Z,100892.50
2023-07-24T06:06:09.458Z,100903.19
2023-07-24T06:08:37.459Z,100915.88
2023-07-24T06:11:06.610Z,100937.41
2023-07-24T06:13:34.350Z,100948.66
2023-07-24T06:16:02.399Z,100970.94
2023-07-24T06:18:30.430Z,101007.88
2023-07-24T06:20:58.403Z,101054.06
2023-07-24T06:23:26.376Z,101090.19
2023-07-24T06:25:54.823Z,101124.66
2023-07-24T06:28:22.862Z,101143.53
2023-07-24T06:30:55.383Z,101169.16
2023-07-24T06:33:23.416Z,101192.31
2023-07-24T06:35:53.734Z,101203.38
2023-07-24T06:38:22.854Z,101208.88
2023-07-24T06:40:51.696Z,101229.44
2023-07-24T06:43:19.636Z,101247.72
2023-07-24T06:45:47.560Z,101252.22
2023-07-24T06:48:15.397Z,101269.69
2023-07-24T06:50:43.400Z,101284.91
2023-07-24T06:53:12.624Z,101277.56
2023-07-24T06:55:40.816Z,101275.34
2023-07-24T06:58:08.959Z,101256.88
2023-07-24T07:00:36.774Z,101205.75
2023-07-24T07:03:05.011Z,101139.84
2023-07-24T07:05:34.354Z,101072.34
2023-07-24T07:08:02.343Z,101012.22
2023-07-24T07:10:32.455Z,100948.44
2023-07-24T07:13:00.394Z,100916.28
2023-07-24T07:15:28.181Z,100898.88
2023-07-24T07:17:56.889Z,100921.84
2023-07-24T07:20:25.521Z,100951.72
2023-07-24T07:22:53.502Z,100983.09
2023-07-24T07:25:21.491Z,101012.78
2023-07-24T07:27:49.451Z,101037.97
2023-07-24T07:30:17.734Z,101063.53
2023-07-24T07:32:45.799Z,101089.06
2023-07-24T07:35:13.748Z,101112.78
2023-07-24T07:37:41.631Z,101119.31
2023-07-24T07:40:10.360Z,101147.03
2023-07-24T07:42:39.866Z,101166.13
2023-07-24T07:45:09.437Z,101176.78
2023-07-24T07:47:38.138Z,101190.44
2023-07-24T07:50:06.945Z,101191.31
2023-07-24T07:52:34.894Z,101186.66
2023-07-24T07:55:03.066Z,101187.75
2023-07-24T07:57:30.979Z,101180.25
2023-07-24T07:59:58.809Z,101161.75
2023-07-24T08:02:26.749Z,101100.56
2023-07-24T08:04:54.814Z,100975.97
2023-07-24T08:07:22.596Z,100737.63
2023-07-24T08:09:51.007Z,100383.22
2023-07-24T08:12:19.181Z,100008.09
2023-07-24T08:14:47.322Z,99634.81
2023-07-24T08:17:15.246Z,99470.50
2023-07-24T08:19:43.295Z,99450.88
2023-07-24T08:22:13.530Z,99247.34
2023-07-24T08:24:41.687Z,98927.41
2023-07-24T08:27:10.237Z,98647.47
2023-07-24T08:29:39.152Z,98546.72
2023-07-24T08:32:08.150Z,98627.75
2023-07-24T08:34:35.996Z,98738.69
2023-07-24T08:37:04.065Z,98813.13
2023-07-24T08:39:33.079Z,98823.56
2023-07-24T08:42:01.577Z,98779.00
2023-07-24T08:44:32.409Z,98765.94
2023-07-24T08:47:01.940Z,98810.22
2023-07-24T08:49:32.473Z,98694.53
2023-07-24T08:52:02.759Z,98507.19
2023-07-24T08:54:33.823Z,97653.09
2023-07-24T08:57:03.751Z,96213.31
2023-07-24T08:59:31.618Z,95660.97
2023-07-24T09:01:59.536Z,95608.59
2023-07-24T09:04:27.884Z,95713.00
2023-07-24T09:06:59.641Z,95767.28
2023-07-24T09:09:33.105Z,95814.28
2023-07-24T09:12:01.463Z,95930.28
2023-07-24T09:14:32.857Z,95976.72
2023-07-24T09:17:11.484Z,96026.94
2023-07-24T09:19:40.816Z,96120.13
2023-07-24T09:22:15.972Z,96171.13
2023-07-24T09:24:59.245Z,96190.53
2023-07-24T09:27:32.102Z,96191.91
2023-07-24T09:30:01.063Z,96327.94
2023-07-24T09:32:32.215Z,96516.09
2023-07-24T09:35:00.152Z,96773.47
2023-07-24T09:37:36.736Z,96949.75
2023-07-24T09:40:08.679Z,97181.28
2023-07-24T09:42:58.413Z,97455.06
2023-07-24T09:45:30.072Z,97616.63
2023-07-24T09:48:06.324Z,97787.00
2023-07-24T09:50:37.619Z,97873.34
2023-07-24T09:53:14.567Z,97814.72
2023-07-24T09:56:06.119Z,97443.81
2023-07-24T09:58:42.137Z,97301.97
2023-07-24T10:01:12.447Z,97236.59
2023-07-24T10:03:51.048Z,97297.00
2023-07-24T10:06:19.531Z,97183.56
2023-07-24T10:08:49.491Z,97090.94
2023-07-24T10:11:17.733Z,96789.56
2023-07-24T10:13:47.618Z,96659.03
2023-07-24T10:16:15.751Z,96590.53
2023-07-24T10:18:48.182Z,96554.94
2023-07-24T10:21:16.223Z,96505.44
2023-07-24T10:23:50.222Z,96530.84
2023-07-24T10:26:18.287Z,96583.06
2023-07-24T10:28:50.292Z,96647.81
2023-07-24T10:31:28.321Z,96684.75
2023-07-24T10:33:58.385Z,96665.34
2023-07-24T10:36:26.201Z,96725.53
2023-07-24T10:38:57.946Z,96747.75
2023-07-24T10:41:38.851Z,96763.50
2023-07-24T10:44:07.217Z,96860.81
2023-07-24T10:46:44.122Z,96920.56
2023-07-24T10:49:13.326Z,96980.22
2023-07-24T10:51:41.294Z,97073.00
2023-07-24T10:54:09.372Z,97148.00
2023-07-24T10:56:39.113Z,97158.34
2023-07-24T10:59:07.669Z,97282.06
2023-07-24T11:01:36.356Z,97358.06
2023-07-24T11:04:05.198Z,97388.94
2023-07-24T11:06:33.277Z,97526.81
2023-07-24T11:09:02.162Z,97668.25
2023-07-24T11:11:37.278Z,97771.03
2023-07-24T11:14:06.136Z,97801.34
2023-07-24T11:16:35.209Z,97796.56
2023-07-24T11:19:03.181Z,97830.25
2023-07-24T11:21:32.195Z,97954.53
2023-07-24T11:24:01.076Z,98028.63
2023-07-24T11:26:29.696Z,98176.84
2023-07-24T11:28:57.629Z,98392.88
2023-07-24T11:31:25.516Z,98647.75
2023-07-24T11:33:55.539Z,98856.38
2023-07-24T11:36:24.319Z,99065.41
2023-07-24T11:38:52.531Z,99297.72
2023-07-24T11:41:20.589Z,99450.06
2023-07-24T11:43:52.480Z,99630.34
2023-07-24T11:46:33.639Z,99762.81
2023-07-24T11:49:01.633Z,99837.63
2023-07-24T11:51:30.574Z,99948.03
2023-07-24T11:54:13.233Z,100029.50
2023-07-24T11:56:41.640Z,100099.34
2023-07-24T11:59:16.807Z,100163.34
2023-07-24T12:01:49.912Z,100241.13
2023-07-24T12:04:19.279Z,100294.38
2023-07-24T12:06:47.771Z,100343.34
2023-07-24T12:09:15.808Z,100393.06
2023-07-24T12:11:47.287Z,100425.56
2023-07-24T12:14:16.237Z,100427.00
2023-07-24T12:16:45.017Z,100422.38
2023-07-24T12:19:13.182Z,100438.41
2023-07-24T12:21:41.488Z,100454.38
2023-07-24T12:24:09.765Z,100440.75
2023-07-24T12:26:38.030Z,100407.81
2023-07-24T12:29:05.863Z,100287.56
2023-07-24T12:31:34.396Z,100062.69
2023-07-24T12:34:02.817Z,99784.25
2023-07-24T12:36:30.697Z,99215.09
2023-07-24T12:38:58.821Z,98317.25
2023-07-24T12:41:26.580Z,97719.06
2023-07-24T12:43:54.790Z,97396.72
2023-07-24T12:46:22.897Z,97411.09
2023-07-24T12:48:50.815Z,97482.06
2023-07-24T12:51:18.966Z,97503.63
2023-07-24T12:53:58.813Z,97444.06
2023-07-24T12:56:34.881Z,97551.00
2023-07-24T12:59:04.669Z,97580.53
2023-07-24T13:01:32.610Z,97449.16
2023-07-24T13:04:01.069Z,97414.28
2023-07-24T13:06:29.309Z,97343.59
2023-07-24T13:08:57.852Z,97062.34
2023-07-24T13:11:26.280Z,97097.44
2023-07-24T13:13:54.150Z,97200.09
2023-07-24T13:16:23.418Z,97135.72
2023-07-24T13:18:51.622Z,97374.25
2023-07-24T13:21:19.762Z,97549.25
2023-07-24T13:23:47.901Z,97475.06
2023-07-24T13:26:17.686Z,97264.09
2023-07-24T13:28:45.752Z,97209.53
2023-07-24T13:31:23.385Z,97322.97
2023-07-24T13:33:51.609Z,97137.13
2023-07-24T13:36:19.687Z,97080.72
2023-07-24T13:38:47.712Z,97024.66
2023-07-24T13:41:15.814Z,97085.97
2023-07-24T13:43:44.296Z,97140.78
2023-07-24T13:46:12.650Z,97047.63
2023-07-24T13:48:41.010Z,97082.81
2023-07-24T13:51:09.281Z,97215.31
2023-07-24T13:53:38.249Z,97287.78
2023-07-24T13:56:07.443Z,97242.41
2023-07-24T13:58:35.894Z,97395.38
2023-07-24T14:01:03.857Z,97368.97
2023-07-24T14:03:31.958Z,97463.09
2023-07-24T14:06:00.118Z,97571.19
2023-07-24T14:08:28.082Z,97607.25
2023-07-24T14:10:56.097Z,97827.50
2023-07-24T14:13:24.433Z,97982.34
2023-07-24T14:15:52.760Z,97876.75
2023-07-24T14:18:21.246Z,97740.00
2023-07-24T14:20:49.395Z,97879.16
2023-07-24T14:23:17.364Z,97996.09
2023-07-24T14:25:45.436Z,97608.63
2023-07-24T14:28:13.436Z,97397.78
2023-07-24T14:30:41.147Z,97315.78
2023-07-24T14:33:09.639Z,97390.19
2023-07-24T14:35:38.131Z,97365.53
2023-07-24T14:38:06.176Z,97594.69
2023-07-24T14:40:34.242Z,97755.84
2023-07-24T14:43:04.772Z,97541.50
2023-07-24T14:45:34.807Z,97495.31
2023-07-24T14:48:02.983Z,97611.19
2023-07-24T14:50:31.325Z,97666.03
2023-07-24T14:52:59.353Z,97478.31
2023-07-24T14:55:27.416Z,97242.28
2023-07-24T14:57:55.552Z,96936.81
2023-07-24T15:00:23.613Z,96875.84
2023-07-24T15:02:51.597Z,96838.72
2023-07-24T15:05:19.699Z,96919.44
2023-07-24T15:07:48.412Z,97139.00
2023-07-24T15:10:16.813Z,97184.31
2023-07-24T15:12:44.646Z,97100.00
2023-07-24T15:15:12.552Z,97071.34
2023-07-24T15:17:40.723Z,97018.19
2023-07-24T15:20:09.848Z,97102.22
2023-07-24T15:22:37.747Z,96939.44
2023-07-24T15:25:06.505Z,96957.13
2023-07-24T15:27:34.647Z,96837.41
2023-07-24T15:30:03.126Z,97082.19
2023-07-24T15:32:31.167Z,97223.41
2023-07-24T15:35:01.621Z,97367.41
2023-07-24T15:37:33.062Z,97428.25
2023-07-24T15:40:01.254Z,97471.59
2023-07-24T15:42:29.112Z,97489.59
2023-07-24T15:44:57.733Z,97488.91
2023-07-24T15:47:27.444Z,97489.59
2023-07-24T15:49:55.500Z,97433.31
2023-07-24T15:52:23.654Z,97310.31
2023-07-24T15:54:51.727Z,97226.28
2023-07-24T15:57:19.898Z,96982.59
2023-07-24T15:59:47.805Z,96870.41
2023-07-24T16:02:16.210Z,96956.88
2023-07-24T16:04:45.669Z,97022.56
2023-07-24T16:07:13.830Z,97232.06
2023-07-24T16:09:41.722Z,97413.63
2023-07-24T16:12:09.908Z,97572.84
2023-07-24T16:14:37.828Z,97593.06
2023-07-24T16:17:08.961Z,97687.38
2023-07-24T16:19:37.065Z,97690.63
2023-07-24T16:22:05.481Z,97651.16
2023-07-24T16:24:33.401Z,97638.72
2023-07-24T16:27:04.453Z,97458.13
2023-07-24T16:29:33.671Z,97436.09
2023-07-24T16:32:01.495Z,97133.25
2023-07-24T16:34:29.545Z,96869.03
2023-07-24T16:36:57.516Z,96930.28
2023-07-24T16:39:26.213Z,96946.75
2023-07-24T16:41:54.011Z,96967.84
2023-07-24T16:44:33.229Z,96962.97
2023-07-24T16:49:36.253Z,97234.69
2023-07-24T16:52:06.573Z,97192.28
2023-07-24T16:54:37.030Z,97177.97
2023-07-24T16:57:05.738Z,97332.00
2023-07-24T16:59:33.638Z,97327.25
2023-07-24T17:02:01.573Z,97405.69
2023-07-24T17:04:29.447Z,97401.59
2023-07-24T17:06:57.239Z,97495.22
2023-07-24T17:09:25.280Z,97503.66
2023-07-24T17:11:53.297Z,97486.03
2023-07-24T17:14:21.514Z,97537.03
2023-07-24T17:16:49.883Z,97547.69
2023-07-24T17:19:20.632Z,97560.88
2023-07-24T17:21:49.907Z,97609.41
2023-07-24T17:24:17.894Z,97505.41
2023-07-24T17:26:45.831Z,97488.69
2023-07-24T17:29:13.725Z,97565.47
2023-07-24T17:31:43.879Z,97538.88
2023-07-24T17:34:11.900Z,97558.44
2023-07-24T17:36:39.719Z,97656.56
2023-07-24T17:39:07.592Z,97701.28
2023-07-24T17:41:35.967Z,97645.00
2023-07-24T17:44:04.033Z,97708.97
2023-07-24T17:46:32.096Z,97744.97
2023-07-24T17:48:59.823Z,97753.00
2023-07-24T17:51:28.220Z,97772.16
2023-07-24T17:53:58.259Z,97791.84
2023-07-24T17:56:26.602Z,97839.19
2023-07-24T17:58:54.471Z,97895.09
2023-07-24T18:01:25.424Z,97868.19
2023-07-24T18:03:53.474Z,97880.66
2023-07-24T18:06:21.614Z,97845.81
2023-07-24T18:08:49.717Z,97891.88
2023-07-24T18:11:17.668Z,97927.00
2023-07-24T18:13:45.618Z,98008.03
2023-07-24T18:16:14.090Z,97997.69
2023-07-24T18:18:42.167Z,98044.19
2023-07-24T18:21:11.225Z,98082.47
2023-07-24T18:23:39.501Z,98113.53
2023-07-24T18:26:07.825Z,98134.25
2023-07-24T18:28:35.861Z,98194.03
2023-07-24T18:31:04.188Z,98276.84
2023-07-24T18:33:32.387Z,98397.69
2023-07-24T18:36:00.582Z,98388.34
2023-07-24T18:38:28.611Z,98429.50
2023-07-24T18:40:56.564Z,98473.03
2023-07-24T18:43:24.695Z,98510.50
2023-07-24T18:45:52.924Z,98540.81
2023-07-24T18:48:20.913Z,98562.03
2023-07-24T18:50:50.849Z,98582.66
2023-07-24T18:53:19.048Z,98602.56
2023-07-24T18:55:46.798Z,98582.94
2023-07-24T18:58:15.290Z,98608.91
2023-07-24T19:00:43.240Z,98673.16
2023-07-24T19:03:12.389Z,98691.69
2023-07-24T19:05:40.361Z,98696.44
2023-07-24T19:08:08.348Z,98712.88
2023-07-24T19:10:36.294Z,98735.44
2023-07-24T19:13:04.313Z,98791.72
2023-07-24T19:15:32.366Z,98863.41
2023-07-24T19:18:00.429Z,98900.56
2023-07-24T19:20:30.958Z,98965.97
2023-07-24T19:22:59.124Z,98986.97
2023-07-24T19:25:27.165Z,99006.94
2023-07-24T19:27:55.087Z,99042.63
2023-07-24T19:30:23.162Z,99153.28
2023-07-24T19:32:51.940Z,99240.69
2023-07-24T19:35:21.255Z,99378.84
2023-07-24T19:37:49.351Z,99482.22
2023-07-24T19:40:17.709Z,99559.34
2023-07-24T19:42:46.358Z,99601.03
2023-07-24T19:45:15.192Z,99624.56
2023-07-24T19:47:43.478Z,99667.19
2023-07-24T19:50:11.890Z,99698.63
2023-07-24T19:52:39.845Z,99718.28
2023-07-24T19:55:10.374Z,99744.59
2023-07-24T19:57:40.156Z,99765.25
2023-07-24T20:00:09.487Z,99806.91
2023-07-24T20:02:37.951Z,99925.78
2023-07-24T20:05:07.077Z,99994.81
2023-07-24T20:07:35.638Z,100044.44
2023-07-24T20:10:04.109Z,100086.94
2023-07-24T20:12:32.160Z,100117.97
2023-07-24T20:15:00.296Z,100154.13
2023-07-24T20:17:28.248Z,100152.69
2023-07-24T20:19:56.430Z,100163.72
2023-07-24T20:22:24.590Z,100180.91
2023-07-24T20:24:52.799Z,100181.91
2023-07-24T20:27:21.078Z,100192.31
2023-07-24T20:29:50.077Z,100205.59
2023-07-24T20:32:18.046Z,100203.34
2023-07-24T20:34:45.985Z,100199.66
2023-07-24T20:37:14.147Z,100187.59
2023-07-24T20:39:43.032Z,100142.91
2023-07-24T20:42:11.397Z,100119.63
2023-07-24T20:44:39.598Z,100101.88
2023-07-24T20:47:09.741Z,100100.50
2023-07-24T20:49:38.030Z,100107.66
2023-07-24T20:52:07.354Z,100128.91
2023-07-24T20:54:35.774Z,100138.84
2023-07-24T20:57:04.347Z,100100.75
2023-07-24T20:59:33.172Z,100065.22
2023-07-24T21:02:01.528Z,100020.53
2023-07-24T21:04:29.352Z,99914.59
2023-07-24T21:06:57.658Z,99821.38
2023-07-24T21:09:25.799Z,99738.69
2023-07-24T21:11:54.098Z,99582.63
2023-07-24T21:14:22.756Z,99484.03
2023-07-24T21:16:51.094Z,99414.84
2023-07-24T21:19:18.883Z,99357.72
2023-07-24T21:21:47.208Z,99355.59
2023-07-24T21:24:15.417Z,99362.72
2023-07-24T21:26:43.915Z,99386.22
2023-07-24T21:29:11.736Z,99406.50
2023-07-24T21:31:40.292Z,99420.59
2023-07-24T21:34:08.350Z,99430.66
2023-07-24T21:36:36.968Z,99454.69
2023-07-24T21:39:05.011Z,99485.69
2023-07-24T21:41:33.708Z,99523.81
2023-07-24T21:44:01.894Z,99546.63
2023-07-24T21:46:30.043Z,99558.28
2023-07-24T21:48:58.038Z,99580.06
2023-07-24T21:51:26.376Z,99541.44
2023-07-24T21:53:54.259Z,99460.34
2023-07-24T21:56:22.202Z,99414.66
2023-07-24T21:58:50.009Z,99332.78
2023-07-24T22:01:21.438Z,99311.59
2023-07-24T22:03:49.672Z,99285.41
2023-07-24T22:06:17.442Z,99283.94
2023-07-24T22:08:45.683Z,99266.28
2023-07-24T22:11:16.896Z,99235.97
2023-07-24T22:13:44.998Z,99249.22
2023-07-24T22:16:13.583Z,99249.88
2023-07-24T22:18:41.625Z,99300.41
2023-07-24T22:21:10.617Z,99314.09
2023-07-24T22:23:38.670Z,99355.31
2023-07-24T22:26:06.693Z,99404.25
2023-07-24T22:28:34.713Z,99477.03
2023-07-24T22:31:13.126Z,99496.81
2023-07-24T22:33:41.330Z,99547.34
2023-07-24T22:36:09.349Z,99589.09
2023-07-24T22:38:37.301Z,99606.22
2023-07-24T22:41:13.459Z,99626.00
2023-07-24T22:43:41.753Z,99651.69
2023-07-24T22:46:10.143Z,99701.19
2023-07-24T22:48:38.336Z,99775.59
2023-07-24T22:51:06.167Z,99840.38
2023-07-24T22:53:33.965Z,99900.47
2023-07-24T22:56:01.941Z,99957.91
2023-07-24T22:58:29.925Z,100016.38
2023-07-24T23:00:57.972Z,100068.97
2023-07-24T23:03:26.296Z,100103.56
2023-07-24T23:05:54.211Z,100144.75
2023-07-24T23:08:21.978Z,100183.03
2023-07-24T23:10:50.896Z,100202.19
2023-07-24T23:13:18.864Z,100218.72
2023-07-24T23:15:46.661Z,100217.06
2023-07-24T23:18:14.427Z,100213.19
2023-07-24T23:20:42.505Z,100231.06
2023-07-24T23:23:10.407Z,100239.63
2023-07-24T23:25:38.400Z,100240.81
2023-07-24T23:28:06.250Z,100261.41
2023-07-24T23:30:44.061Z,100272.81
2023-07-24T23:33:12.073Z,100278.28
2023-07-24T23:35:40.289Z,100276.06
2023-07-24T23:38:08.269Z,100282.34
2023-07-24T23:40:36.347Z,100276.59
2023-07-24T23:43:04.651Z,100276.81
2023-07-24T23:45:36.861Z,100269.25
2023-07-24T23:48:05.909Z,100271.31
2023-07-24T23:50:38.482Z,100259.22
2023-07-24T23:53:07.733Z,100269.00
2023-07-24T23:55:35.736Z,100260.63
2023-07-24T23:58:04.154Z,100247.59
